sensor_id;sensor_type;location;lat;lon;timestamp;pressure;altitude;pressure_sealevel;temperature;humidity
57248;BME280;55809;46.618;10.764;2023-01-27T00:00:53;92310.75;;;-0.18;46.09
57248;BME280;55809;46.618;10.764;2023-01-27T00:03:21;92295.19;;;-0.19;44.66
57248;BME280;55809;46.618;10.764;2023-01-27T00:05:48;92305.03;;;-0.20;44.88
57248;BME280;55809;46.618;10.764;2023-01-27T00:08:16;92297.59;;;-0.30;45.08
57248;BME280;55809;46.618;10.764;2023-01-27T00:10:43;92288.16;;;-0.47;45.00
57248;BME280;55809;46.618;10.764;2023-01-27T00:13:12;92300.91;;;-0.53;45.66
57248;BME280;55809;46.618;10.764;2023-01-27T00:15:53;92302.69;;;-0.57;45.68
57248;BME280;55809;46.618;10.764;2023-01-27T00:18:23;92304.72;;;-0.50;47.63
57248;BME280;55809;46.618;10.764;2023-01-27T00:20:51;92302.53;;;-0.48;47.14
57248;BME280;55809;46.618;10.764;2023-01-27T00:23:35;92301.84;;;-0.45;47.54
57248;BME280;55809;46.618;10.764;2023-01-27T00:26:20;92293.28;;;-0.38;46.95
57248;BME280;55809;46.618;10.764;2023-01-27T00:28:46;92292.16;;;-0.37;46.38
57248;BME280;55809;46.618;10.764;2023-01-27T00:31:15;92289.94;;;-0.35;44.09
57248;BME280;55809;46.618;10.764;2023-01-27T00:34:01;92278.13;;;-0.38;46.97
57248;BME280;55809;46.618;10.764;2023-01-27T00:36:34;92287.28;;;-0.35;46.43
57248;BME280;55809;46.618;10.764;2023-01-27T00:39:01;92286.84;;;-0.37;47.66
57248;BME280;55809;46.618;10.764;2023-01-27T00:41:28;92280.94;;;-0.31;47.98
57248;BME280;55809;46.618;10.764;2023-01-27T00:43:55;92285.31;;;-0.38;48.21
57248;BME280;55809;46.618;10.764;2023-01-27T00:46:23;92281.22;;;-0.36;48.31
57248;BME280;55809;46.618;10.764;2023-01-27T00:48:52;92263.88;;;-0.49;48.08
57248;BME280;55809;46.618;10.764;2023-01-27T00:51:22;92273.63;;;-0.53;47.16
57248;BME280;55809;46.618;10.764;2023-01-27T00:53:49;92267.31;;;-0.64;46.07
57248;BME280;55809;46.618;10.764;2023-01-27T00:56:16;92271.31;;;-0.55;46.94
57248;BME280;55809;46.618;10.764;2023-01-27T00:58:43;92271.66;;;-0.56;46.91
57248;BME280;55809;46.618;10.764;2023-01-27T01:01:13;92274.66;;;-0.58;48.57
57248;BME280;55809;46.618;10.764;2023-01-27T01:03:42;92285.34;;;-0.54;48.74
57248;BME280;55809;46.618;10.764;2023-01-27T01:06:12;92280.53;;;-0.49;48.96
57248;BME280;55809;46.618;10.764;2023-01-27T01:08:41;92283.44;;;-0.54;49.13
57248;BME280;55809;46.618;10.764;2023-01-27T01:11:10;92287.00;;;-0.65;46.63
57248;BME280;55809;46.618;10.764;2023-01-27T01:13:38;92275.28;;;-0.80;47.06
57248;BME280;55809;46.618;10.764;2023-01-27T01:16:07;92279.56;;;-0.76;46.54
57248;BME280;55809;46.618;10.764;2023-01-27T01:18:35;92280.72;;;-0.73;46.41
57248;BME280;55809;46.618;10.764;2023-01-27T01:21:04;92278.97;;;-0.69;45.13
57248;BME280;55809;46.618;10.764;2023-01-27T01:23:32;92278.09;;;-0.73;46.24
57248;BME280;55809;46.618;10.764;2023-01-27T01:26:00;92281.16;;;-0.71;46.18
57248;BME280;55809;46.618;10.764;2023-01-27T01:28:27;92277.59;;;-0.79;47.98
57248;BME280;55809;46.618;10.764;2023-01-27T01:30:54;92283.66;;;-0.78;47.69
57248;BME280;55809;46.618;10.764;2023-01-27T01:33:21;92293.91;;;-0.77;47.46
57248;BME280;55809;46.618;10.764;2023-01-27T01:35:48;92283.59;;;-0.82;47.06
57248;BME280;55809;46.618;10.764;2023-01-27T01:38:15;92294.09;;;-0.85;46.99
57248;BME280;55809;46.618;10.764;2023-01-27T01:40:43;92287.25;;;-0.86;47.05
57248;BME280;55809;46.618;10.764;2023-01-27T01:43:13;92286.22;;;-0.82;47.60
57248;BME280;55809;46.618;10.764;2023-01-27T01:45:50;92286.22;;;-0.82;47.40
57248;BME280;55809;46.618;10.764;2023-01-27T01:48:32;92289.47;;;-0.88;47.77
57248;BME280;55809;46.618;10.764;2023-01-27T01:51:06;92284.34;;;-0.97;47.38
57248;BME280;55809;46.618;10.764;2023-01-27T01:53:39;92285.53;;;-1.10;48.01
57248;BME280;55809;46.618;10.764;2023-01-27T01:56:10;92261.59;;;-1.30;49.21
57248;BME280;55809;46.618;10.764;2023-01-27T01:58:43;92288.25;;;-1.23;49.54
57248;BME280;55809;46.618;10.764;2023-01-27T02:01:12;92290.28;;;-1.32;49.13
57248;BME280;55809;46.618;10.764;2023-01-27T02:03:42;92292.66;;;-1.43;49.30
57248;BME280;55809;46.618;10.764;2023-01-27T02:06:10;92287.19;;;-1.50;49.62
57248;BME280;55809;46.618;10.764;2023-01-27T02:08:39;92292.13;;;-1.64;50.05
57248;BME280;55809;46.618;10.764;2023-01-27T02:11:08;92290.03;;;-1.71;50.27
57248;BME280;55809;46.618;10.764;2023-01-27T02:13:35;92289.47;;;-1.64;50.22
57248;BME280;55809;46.618;10.764;2023-01-27T02:16:05;92266.72;;;-1.81;50.47
57248;BME280;55809;46.618;10.764;2023-01-27T02:18:34;92284.41;;;-1.69;51.06
57248;BME280;55809;46.618;10.764;2023-01-27T02:21:03;92289.59;;;-1.73;50.91
57248;BME280;55809;46.618;10.764;2023-01-27T02:23:39;92281.91;;;-1.78;50.42
57248;BME280;55809;46.618;10.764;2023-01-27T02:26:15;92290.97;;;-1.91;51.19
57248;BME280;55809;46.618;10.764;2023-01-27T02:28:44;92271.06;;;-2.01;48.87
57248;BME280;55809;46.618;10.764;2023-01-27T02:31:12;92286.69;;;-1.83;50.75
57248;BME280;55809;46.618;10.764;2023-01-27T02:33:40;92286.22;;;-1.85;51.34
57248;BME280;55809;46.618;10.764;2023-01-27T02:36:10;92285.41;;;-2.02;51.41
57248;BME280;55809;46.618;10.764;2023-01-27T02:38:42;92289.06;;;-2.06;51.82
57248;BME280;55809;46.618;10.764;2023-01-27T02:41:15;92287.78;;;-2.25;52.38
57248;BME280;55809;46.618;10.764;2023-01-27T02:43:44;92298.69;;;-2.26;52.68
57248;BME280;55809;46.618;10.764;2023-01-27T02:46:11;92291.75;;;-2.31;52.42
57248;BME280;55809;46.618;10.764;2023-01-27T02:48:38;92297.13;;;-2.27;51.94
57248;BME280;55809;46.618;10.764;2023-01-27T02:51:05;92295.38;;;-2.23;52.60
57248;BME280;55809;46.618;10.764;2023-01-27T02:53:32;92291.94;;;-2.24;51.92
57248;BME280;55809;46.618;10.764;2023-01-27T02:55:59;92298.44;;;-2.21;51.94
57248;BME280;55809;46.618;10.764;2023-01-27T02:58:28;92291.13;;;-2.00;53.16
57248;BME280;55809;46.618;10.764;2023-01-27T03:00:55;92294.06;;;-1.89;53.32
57248;BME280;55809;46.618;10.764;2023-01-27T03:03:22;92265.38;;;-2.03;51.51
57248;BME280;55809;46.618;10.764;2023-01-27T03:05:49;92282.56;;;-2.09;51.81
57248;BME280;55809;46.618;10.764;2023-01-27T03:08:16;92283.22;;;-2.12;52.21
57248;BME280;55809;46.618;10.764;2023-01-27T03:10:48;92284.91;;;-2.20;51.34
57248;BME280;55809;46.618;10.764;2023-01-27T03:13:15;92290.22;;;-2.32;51.51
57248;BME280;55809;46.618;10.764;2023-01-27T03:15:43;92278.78;;;-2.36;52.66
57248;BME280;55809;46.618;10.764;2023-01-27T03:18:27;92290.88;;;-2.35;52.78
57248;BME280;55809;46.618;10.764;2023-01-27T03:20:59;92297.38;;;-2.32;52.19
57248;BME280;55809;46.618;10.764;2023-01-27T03:23:27;92289.88;;;-2.30;52.22
57248;BME280;55809;46.618;10.764;2023-01-27T03:25:54;92290.66;;;-2.30;52.46
57248;BME280;55809;46.618;10.764;2023-01-27T03:28:22;92295.41;;;-2.36;52.16
57248;BME280;55809;46.618;10.764;2023-01-27T03:30:50;92286.16;;;-2.42;52.50
57248;BME280;55809;46.618;10.764;2023-01-27T03:33:17;92288.47;;;-2.40;52.49
57248;BME280;55809;46.618;10.764;2023-01-27T03:35:44;92291.00;;;-2.44;52.87
57248;BME280;55809;46.618;10.764;2023-01-27T03:38:14;92298.28;;;-2.53;51.55
57248;BME280;55809;46.618;10.764;2023-01-27T03:40:59;92291.59;;;-2.75;53.55
57248;BME280;55809;46.618;10.764;2023-01-27T03:43:43;92293.25;;;-2.83;53.43
57248;BME280;55809;46.618;10.764;2023-01-27T03:46:29;92284.97;;;-2.81;53.92
57248;BME280;55809;46.618;10.764;2023-01-27T03:48:57;92298.09;;;-2.72;52.37
57248;BME280;55809;46.618;10.764;2023-01-27T03:51:25;92291.25;;;-2.61;52.90
57248;BME280;55809;46.618;10.764;2023-01-27T03:53:52;92250.00;;;-2.78;53.09
57248;BME280;55809;46.618;10.764;2023-01-27T03:56:21;92289.72;;;-2.74;52.86
57248;BME280;55809;46.618;10.764;2023-01-27T03:58:49;92291.69;;;-2.71;52.08
57248;BME280;55809;46.618;10.764;2023-01-27T04:01:18;92283.97;;;-2.64;52.51
57248;BME280;55809;46.618;10.764;2023-01-27T04:03:47;92283.53;;;-2.54;52.51
57248;BME280;55809;46.618;10.764;2023-01-27T04:06:33;92256.59;;;-2.72;52.55
57248;BME280;55809;46.618;10.764;2023-01-27T04:09:23;92259.34;;;-2.68;53.25
57248;BME280;55809;46.618;10.764;2023-01-27T04:11:50;92278.59;;;-2.55;52.91
57248;BME280;55809;46.618;10.764;2023-01-27T04:14:26;92278.28;;;-2.66;52.61
57248;BME280;55809;46.618;10.764;2023-01-27T04:16:56;92280.56;;;-2.65;51.72
57248;BME280;55809;46.618;10.764;2023-01-27T04:19:25;92283.22;;;-2.77;51.51
57248;BME280;55809;46.618;10.764;2023-01-27T04:21:52;92279.78;;;-2.90;51.57
57248;BME280;55809;46.618;10.764;2023-01-27T04:24:21;92267.16;;;-2.96;52.91
57248;BME280;55809;46.618;10.764;2023-01-27T04:26:52;92274.53;;;-2.77;52.09
57248;BME280;55809;46.618;10.764;2023-01-27T04:29:22;92234.16;;;-2.90;52.45
57248;BME280;55809;46.618;10.764;2023-01-27T04:31:49;92283.75;;;-2.59;52.22
57248;BME280;55809;46.618;10.764;2023-01-27T04:34:17;92276.16;;;-2.61;52.18
57248;BME280;55809;46.618;10.764;2023-01-27T04:36:46;92275.06;;;-2.60;52.54
57248;BME280;55809;46.618;10.764;2023-01-27T04:39:13;92271.78;;;-2.56;52.23
57248;BME280;55809;46.618;10.764;2023-01-27T04:41:41;92280.56;;;-2.52;51.04
57248;BME280;55809;46.618;10.764;2023-01-27T04:44:08;92268.25;;;-2.85;52.48
57248;BME280;55809;46.618;10.764;2023-01-27T04:46:36;92233.50;;;-3.12;52.88
57248;BME280;55809;46.618;10.764;2023-01-27T04:49:03;92264.19;;;-2.83;52.29
57248;BME280;55809;46.618;10.764;2023-01-27T04:51:31;92279.81;;;-2.77;52.69
57248;BME280;55809;46.618;10.764;2023-01-27T04:54:00;92264.06;;;-2.74;52.24
57248;BME280;55809;46.618;10.764;2023-01-27T04:56:29;92268.69;;;-2.71;52.47
57248;BME280;55809;46.618;10.764;2023-01-27T04:58:59;92270.91;;;-2.73;51.77
57248;BME280;55809;46.618;10.764;2023-01-27T05:01:28;92280.47;;;-2.80;52.37
57248;BME280;55809;46.618;10.764;2023-01-27T05:03:57;92290.59;;;-2.83;52.96
57248;BME280;55809;46.618;10.764;2023-01-27T05:06:26;92288.06;;;-2.91;52.57
57248;BME280;55809;46.618;10.764;2023-01-27T05:08:53;92288.16;;;-3.12;53.25
57248;BME280;55809;46.618;10.764;2023-01-27T05:11:21;92294.88;;;-3.15;53.69
57248;BME280;55809;46.618;10.764;2023-01-27T05:13:48;92286.28;;;-3.12;54.17
57248;BME280;55809;46.618;10.764;2023-01-27T05:16:16;92289.34;;;-3.10;53.79
57248;BME280;55809;46.618;10.764;2023-01-27T05:18:45;92297.38;;;-3.06;53.69
57248;BME280;55809;46.618;10.764;2023-01-27T05:21:13;92307.44;;;-2.99;53.51
57248;BME280;55809;46.618;10.764;2023-01-27T05:23:41;92293.22;;;-3.07;53.56
57248;BME280;55809;46.618;10.764;2023-01-27T05:26:11;92283.00;;;-3.09;53.43
57248;BME280;55809;46.618;10.764;2023-01-27T05:28:41;92305.97;;;-2.97;52.88
57248;BME280;55809;46.618;10.764;2023-01-27T05:31:09;92275.50;;;-3.19;52.08
57248;BME280;55809;46.618;10.764;2023-01-27T05:33:37;92302.16;;;-2.99;52.92
57248;BME280;55809;46.618;10.764;2023-01-27T05:36:05;92305.31;;;-3.06;52.59
57248;BME280;55809;46.618;10.764;2023-01-27T05:38:33;92299.91;;;-3.10;52.40
57248;BME280;55809;46.618;10.764;2023-01-27T05:41:02;92298.94;;;-3.05;53.13
57248;BME280;55809;46.618;10.764;2023-01-27T05:43:31;92305.09;;;-3.01;53.00
57248;BME280;55809;46.618;10.764;2023-01-27T05:46:03;92294.75;;;-3.18;53.12
57248;BME280;55809;46.618;10.764;2023-01-27T05:48:30;92279.88;;;-3.35;52.08
57248;BME280;55809;46.618;10.764;2023-01-27T05:50:58;92319.19;;;-3.09;52.30
57248;BME280;55809;46.618;10.764;2023-01-27T05:53:25;92312.16;;;-3.05;52.64
57248;BME280;55809;46.618;10.764;2023-01-27T05:55:52;92322.03;;;-3.14;52.81
57248;BME280;55809;46.618;10.764;2023-01-27T05:58:20;92320.28;;;-3.22;53.06
57248;BME280;55809;46.618;10.764;2023-01-27T06:00:50;92323.22;;;-3.24;53.14
57248;BME280;55809;46.618;10.764;2023-01-27T06:03:20;92324.56;;;-3.18;52.83
57248;BME280;55809;46.618;10.764;2023-01-27T06:05:51;92330.59;;;-3.17;52.92
57248;BME280;55809;46.618;10.764;2023-01-27T06:08:18;92283.25;;;-3.47;53.03
57248;BME280;55809;46.618;10.764;2023-01-27T06:10:45;92315.41;;;-3.20;52.54
57248;BME280;55809;46.618;10.764;2023-01-27T06:13:12;92324.09;;;-3.32;52.68
57248;BME280;55809;46.618;10.764;2023-01-27T06:15:41;92336.19;;;-3.31;51.17
57248;BME280;55809;46.618;10.764;2023-01-27T06:18:08;92325.94;;;-3.45;53.50
57248;BME280;55809;46.618;10.764;2023-01-27T06:20:38;92307.53;;;-3.54;52.94
57248;BME280;55809;46.618;10.764;2023-01-27T06:23:05;92309.63;;;-3.47;52.69
57248;BME280;55809;46.618;10.764;2023-01-27T06:25:35;92335.03;;;-3.42;53.63
57248;BME280;55809;46.618;10.764;2023-01-27T06:28:04;92327.75;;;-3.58;53.16
57248;BME280;55809;46.618;10.764;2023-01-27T06:30:34;92328.47;;;-3.69;54.28
57248;BME280;55809;46.618;10.764;2023-01-27T06:33:03;92325.94;;;-3.66;53.96
57248;BME280;55809;46.618;10.764;2023-01-27T06:35:31;92320.16;;;-3.59;53.96
57248;BME280;55809;46.618;10.764;2023-01-27T06:38:00;92321.59;;;-3.62;53.42
57248;BME280;55809;46.618;10.764;2023-01-27T06:40:29;92298.03;;;-3.67;53.15
57248;BME280;55809;46.618;10.764;2023-01-27T06:42:56;92334.72;;;-3.41;51.50
57248;BME280;55809;46.618;10.764;2023-01-27T06:45:23;92340.88;;;-3.37;52.02
57248;BME280;55809;46.618;10.764;2023-01-27T06:47:53;92336.06;;;-3.35;53.00
57248;BME280;55809;46.618;10.764;2023-01-27T06:50:21;92345.09;;;-3.23;52.66
57248;BME280;55809;46.618;10.764;2023-01-27T06:52:48;92337.41;;;-3.16;52.33
57248;BME280;55809;46.618;10.764;2023-01-27T06:55:17;92344.47;;;-3.08;52.90
57248;BME280;55809;46.618;10.764;2023-01-27T06:57:46;92354.03;;;-3.03;52.94
57248;BME280;55809;46.618;10.764;2023-01-27T07:00:16;92365.72;;;-3.04;52.50
57248;BME280;55809;46.618;10.764;2023-01-27T07:02:43;92361.84;;;-3.07;52.12
57248;BME280;55809;46.618;10.764;2023-01-27T07:05:11;92367.94;;;-2.94;52.06
57248;BME280;55809;46.618;10.764;2023-01-27T07:07:38;92374.19;;;-2.99;52.95
57248;BME280;55809;46.618;10.764;2023-01-27T07:10:06;92371.84;;;-3.13;52.29
57248;BME280;55809;46.618;10.764;2023-01-27T07:12:36;92377.22;;;-3.21;52.58
57248;BME280;55809;46.618;10.764;2023-01-27T07:15:07;92377.25;;;-2.97;61.46
57248;BME280;55809;46.618;10.764;2023-01-27T07:17:35;92379.97;;;-2.48;62.72
57248;BME280;55809;46.618;10.764;2023-01-27T07:20:06;92385.91;;;-2.39;59.36
57248;BME280;55809;46.618;10.764;2023-01-27T07:22:35;92377.97;;;-2.51;54.71
57248;BME280;55809;46.618;10.764;2023-01-27T07:25:02;92381.84;;;-2.73;52.77
57248;BME280;55809;46.618;10.764;2023-01-27T07:27:31;92381.91;;;-2.81;52.76
57248;BME280;55809;46.618;10.764;2023-01-27T07:30:01;92388.19;;;-2.86;52.49
57248;BME280;55809;46.618;10.764;2023-01-27T07:32:28;92396.97;;;-2.94;52.21
57248;BME280;55809;46.618;10.764;2023-01-27T07:34:54;92397.63;;;-2.97;51.23
57248;BME280;55809;46.618;10.764;2023-01-27T07:37:21;92394.22;;;-2.98;51.84
57248;BME280;55809;46.618;10.764;2023-01-27T07:39:49;92397.31;;;-2.96;52.53
57248;BME280;55809;46.618;10.764;2023-01-27T07:42:16;92397.31;;;-2.96;52.80
57248;BME280;55809;46.618;10.764;2023-01-27T07:44:43;92354.31;;;-3.30;53.10
57248;BME280;55809;46.618;10.764;2023-01-27T07:47:11;92392.41;;;-3.06;54.71
57248;BME280;55809;46.618;10.764;2023-01-27T07:49:38;92393.16;;;-3.18;55.71
57248;BME280;55809;46.618;10.764;2023-01-27T07:52:07;92405.75;;;-3.36;56.29
57248;BME280;55809;46.618;10.764;2023-01-27T07:54:34;92396.94;;;-3.40;56.03
57248;BME280;55809;46.618;10.764;2023-01-27T07:57:02;92390.44;;;-3.42;54.89
57248;BME280;55809;46.618;10.764;2023-01-27T07:59:31;92389.47;;;-3.38;55.35
57248;BME280;55809;46.618;10.764;2023-01-27T08:01:57;92389.06;;;-3.27;55.24
57248;BME280;55809;46.618;10.764;2023-01-27T08:04:28;92388.00;;;-3.14;54.17
57248;BME280;55809;46.618;10.764;2023-01-27T08:06:56;92389.34;;;-3.08;53.65
57248;BME280;55809;46.618;10.764;2023-01-27T08:09:23;92388.78;;;-3.14;53.09
57248;BME280;55809;46.618;10.764;2023-01-27T08:11:50;92385.31;;;-3.26;55.78
57248;BME280;55809;46.618;10.764;2023-01-27T08:14:17;92395.25;;;-3.23;55.88
57248;BME280;55809;46.618;10.764;2023-01-27T08:16:44;92404.78;;;-3.31;54.42
57248;BME280;55809;46.618;10.764;2023-01-27T08:19:11;92391.47;;;-3.35;55.03
57248;BME280;55809;46.618;10.764;2023-01-27T08:21:39;92396.53;;;-3.30;54.61
57248;BME280;55809;46.618;10.764;2023-01-27T08:24:06;92398.88;;;-3.28;52.40
57248;BME280;55809;46.618;10.764;2023-01-27T08:26:34;92401.63;;;-3.24;53.41
57248;BME280;55809;46.618;10.764;2023-01-27T08:29:02;92351.78;;;-3.59;53.92
57248;BME280;55809;46.618;10.764;2023-01-27T08:31:30;92410.19;;;-3.27;53.00
57248;BME280;55809;46.618;10.764;2023-01-27T08:33:56;92362.09;;;-3.66;54.04
57248;BME280;55809;46.618;10.764;2023-01-27T08:36:23;92401.56;;;-3.37;55.62
57248;BME280;55809;46.618;10.764;2023-01-27T08:38:52;92320.44;;;-3.73;55.18
57248;BME280;55809;46.618;10.764;2023-01-27T08:41:20;92395.06;;;-3.06;54.40
57248;BME280;55809;46.618;10.764;2023-01-27T08:43:48;92397.56;;;-2.64;53.90
57248;BME280;55809;46.618;10.764;2023-01-27T08:46:15;92400.53;;;-2.04;53.65
57248;BME280;55809;46.618;10.764;2023-01-27T08:48:43;92394.56;;;-1.49;52.05
57248;BME280;55809;46.618;10.764;2023-01-27T08:51:11;92360.25;;;-1.17;51.35
57248;BME280;55809;46.618;10.764;2023-01-27T08:53:39;92395.53;;;-0.53;50.39
57248;BME280;55809;46.618;10.764;2023-01-27T08:56:11;92352.44;;;-0.50;49.15
57248;BME280;55809;46.618;10.764;2023-01-27T08:58:40;92379.88;;;-0.27;49.48
57248;BME280;55809;46.618;10.764;2023-01-27T09:01:07;92381.81;;;0.08;48.97
57248;BME280;55809;46.618;10.764;2023-01-27T09:03:36;92383.94;;;0.38;47.89
57248;BME280;55809;46.618;10.764;2023-01-27T09:06:07;92378.19;;;0.16;47.70
57248;BME280;55809;46.618;10.764;2023-01-27T09:08:35;92363.50;;;0.58;46.98
57248;BME280;55809;46.618;10.764;2023-01-27T09:11:09;92359.06;;;1.04;46.65
57248;BME280;55809;46.618;10.764;2023-01-27T09:13:36;92353.66;;;1.20;45.51
57248;BME280;55809;46.618;10.764;2023-01-27T09:16:04;92360.16;;;1.46;44.16
57248;BME280;55809;46.618;10.764;2023-01-27T09:18:31;92356.66;;;1.64;43.48
57248;BME280;55809;46.618;10.764;2023-01-27T09:21:02;92323.03;;;1.53;43.42
57248;BME280;55809;46.618;10.764;2023-01-27T09:23:29;92354.28;;;1.82;42.59
57248;BME280;55809;46.618;10.764;2023-01-27T09:25:56;92346.66;;;2.07;42.76
57248;BME280;55809;46.618;10.764;2023-01-27T09:28:26;92348.16;;;2.35;42.11
57248;BME280;55809;46.618;10.764;2023-01-27T09:30:56;92346.94;;;2.29;41.08
57248;BME280;55809;46.618;10.764;2023-01-27T09:33:23;92299.22;;;2.17;41.11
57248;BME280;55809;46.618;10.764;2023-01-27T09:35:55;92350.28;;;2.52;40.88
57248;BME280;55809;46.618;10.764;2023-01-27T09:38:24;92344.00;;;2.68;40.86
57248;BME280;55809;46.618;10.764;2023-01-27T09:41:04;92331.78;;;2.97;40.32
57248;BME280;55809;46.618;10.764;2023-01-27T09:46:44;92325.91;;;3.21;40.02
57248;BME280;55809;46.618;10.764;2023-01-27T09:49:27;92322.59;;;3.32;38.99
57248;BME280;55809;46.618;10.764;2023-01-27T09:52:12;92325.78;;;3.48;38.37
57248;BME280;55809;46.618;10.764;2023-01-27T09:54:54;92317.00;;;3.47;38.75
57248;BME280;55809;46.618;10.764;2023-01-27T09:57:35;92320.13;;;3.53;39.15
57248;BME280;55809;46.618;10.764;2023-01-27T10:00:19;92329.03;;;3.75;38.87
57248;BME280;55809;46.618;10.764;2023-01-27T10:03:07;92327.66;;;3.92;36.89
57248;BME280;55809;46.618;10.764;2023-01-27T10:08:47;92314.47;;;4.20;36.63
57248;BME280;55809;46.618;10.764;2023-01-27T10:11:19;92320.47;;;3.99;36.05
57248;BME280;55809;46.618;10.764;2023-01-27T10:14:02;92319.31;;;4.00;37.28
57248;BME280;55809;46.618;10.764;2023-01-27T10:16:53;92320.50;;;4.07;36.69
57248;BME280;55809;46.618;10.764;2023-01-27T10:19:32;92291.69;;;3.75;35.54
57248;BME280;55809;46.618;10.764;2023-01-27T10:22:12;92321.94;;;3.93;35.89
57248;BME280;55809;46.618;10.764;2023-01-27T10:24:52;92327.09;;;3.68;36.88
57248;BME280;55809;46.618;10.764;2023-01-27T10:27:26;92317.16;;;3.65;36.88
57248;BME280;55809;46.618;10.764;2023-01-27T10:30:02;92322.81;;;3.57;38.15
57248;BME280;55809;46.618;10.764;2023-01-27T10:32:39;92286.00;;;3.32;37.62
57248;BME280;55809;46.618;10.764;2023-01-27T10:35:15;92323.97;;;3.59;37.47
57248;BME280;55809;46.618;10.764;2023-01-27T10:37:51;92312.38;;;3.41;37.04
57248;BME280;55809;46.618;10.764;2023-01-27T10:40:29;92318.75;;;3.29;37.17
57248;BME280;55809;46.618;10.764;2023-01-27T10:43:03;92307.09;;;3.48;37.17
57248;BME280;55809;46.618;10.764;2023-01-27T10:45:35;92303.44;;;3.67;37.24
57248;BME280;55809;46.618;10.764;2023-01-27T10:48:23;92311.66;;;3.92;36.84
57248;BME280;55809;46.618;10.764;2023-01-27T10:50:58;92310.41;;;3.79;35.89
57248;BME280;55809;46.618;10.764;2023-01-27T10:53:33;92313.38;;;3.70;36.57
57248;BME280;55809;46.618;10.764;2023-01-27T10:56:05;92305.81;;;3.75;36.50
57248;BME280;55809;46.618;10.764;2023-01-27T10:58:52;92294.47;;;3.93;35.28
57248;BME280;55809;46.618;10.764;2023-01-27T11:01:26;92288.69;;;3.84;36.30
57248;BME280;55809;46.618;10.764;2023-01-27T11:04:00;92295.41;;;4.22;36.21
57248;BME280;55809;46.618;10.764;2023-01-27T11:06:35;92291.91;;;4.11;34.86
57248;BME280;55809;46.618;10.764;2023-01-27T11:09:10;92297.22;;;4.04;34.77
57248;BME280;55809;46.618;10.764;2023-01-27T11:11:40;92292.09;;;3.77;34.30
57248;BME280;55809;46.618;10.764;2023-01-27T11:14:24;92295.91;;;3.76;34.39
57248;BME280;55809;46.618;10.764;2023-01-27T11:16:59;92294.56;;;4.11;35.46
57248;BME280;55809;46.618;10.764;2023-01-27T11:19:34;92287.84;;;4.35;34.09
57248;BME280;55809;46.618;10.764;2023-01-27T11:22:15;92291.34;;;4.53;33.37
57248;BME280;55809;46.618;10.764;2023-01-27T11:24:46;92288.25;;;4.40;34.14
57248;BME280;55809;46.618;10.764;2023-01-27T11:27:20;92284.50;;;4.59;34.27
57248;BME280;55809;46.618;10.764;2023-01-27T11:29:55;92281.06;;;4.55;34.38
57248;BME280;55809;46.618;10.764;2023-01-27T11:32:33;92281.41;;;4.46;33.66
57248;BME280;55809;46.618;10.764;2023-01-27T11:35:07;92275.22;;;4.25;34.00
57248;BME280;55809;46.618;10.764;2023-01-27T11:37:43;92280.13;;;4.19;33.57
57248;BME280;55809;46.618;10.764;2023-01-27T11:40:16;92276.72;;;4.22;34.10
57248;BME280;55809;46.618;10.764;2023-01-27T11:42:45;92267.50;;;4.09;34.90
57248;BME280;55809;46.618;10.764;2023-01-27T11:45:15;92263.41;;;4.29;34.68
57248;BME280;55809;46.618;10.764;2023-01-27T11:47:44;92258.84;;;4.37;34.61
57248;BME280;55809;46.618;10.764;2023-01-27T11:50:14;92252.00;;;4.39;33.78
57248;BME280;55809;46.618;10.764;2023-01-27T11:52:46;92247.06;;;4.49;34.20
57248;BME280;55809;46.618;10.764;2023-01-27T11:55:17;92244.38;;;4.38;33.13
57248;BME280;55809;46.618;10.764;2023-01-27T11:57:48;92239.38;;;4.36;34.13
57248;BME280;55809;46.618;10.764;2023-01-27T12:00:20;92241.25;;;4.21;35.02
57248;BME280;55809;46.618;10.764;2023-01-27T12:02:54;92236.25;;;4.16;34.42
57248;BME280;55809;46.618;10.764;2023-01-27T12:05:32;92223.56;;;3.99;35.96
57248;BME280;55809;46.618;10.764;2023-01-27T12:08:03;92230.44;;;4.00;35.66
57248;BME280;55809;46.618;10.764;2023-01-27T12:10:32;92227.31;;;3.87;35.79
57248;BME280;55809;46.618;10.764;2023-01-27T12:13:06;92214.28;;;3.75;36.76
57248;BME280;55809;46.618;10.764;2023-01-27T12:15:34;92227.94;;;3.63;37.58
57248;BME280;55809;46.618;10.764;2023-01-27T12:18:03;92207.81;;;3.76;37.87
57248;BME280;55809;46.618;10.764;2023-01-27T12:20:36;92205.53;;;3.82;36.59
57248;BME280;55809;46.618;10.764;2023-01-27T12:23:16;92206.25;;;3.71;37.17
57248;BME280;55809;46.618;10.764;2023-01-27T12:25:46;92201.97;;;3.56;37.87
57248;BME280;55809;46.618;10.764;2023-01-27T12:28:24;92205.09;;;3.65;38.15
57248;BME280;55809;46.618;10.764;2023-01-27T12:30:56;92202.34;;;3.55;38.92
57248;BME280;55809;46.618;10.764;2023-01-27T12:33:28;92205.78;;;3.55;38.70
57248;BME280;55809;46.618;10.764;2023-01-27T12:35:58;92209.59;;;3.54;38.64
57248;BME280;55809;46.618;10.764;2023-01-27T12:38:28;92187.72;;;3.34;38.24
57248;BME280;55809;46.618;10.764;2023-01-27T12:41:01;92214.91;;;3.54;38.26
57248;BME280;55809;46.618;10.764;2023-01-27T12:43:30;92205.78;;;3.55;38.11
57248;BME280;55809;46.618;10.764;2023-01-27T12:46:17;92194.34;;;3.58;38.13
57248;BME280;55809;46.618;10.764;2023-01-27T12:48:47;92207.41;;;3.70;38.17
57248;BME280;55809;46.618;10.764;2023-01-27T12:51:18;92199.84;;;3.80;37.54
57248;BME280;55809;46.618;10.764;2023-01-27T12:53:48;92208.56;;;3.73;37.03
57248;BME280;55809;46.618;10.764;2023-01-27T12:56:17;92202.50;;;3.83;38.27
57248;BME280;55809;46.618;10.764;2023-01-27T12:58:54;92137.50;;;3.47;37.28
57248;BME280;55809;46.618;10.764;2023-01-27T13:01:25;92196.84;;;3.92;37.20
57248;BME280;55809;46.618;10.764;2023-01-27T13:03:53;92194.97;;;3.96;36.55
57248;BME280;55809;46.618;10.764;2023-01-27T13:06:29;92199.19;;;4.04;35.80
57248;BME280;55809;46.618;10.764;2023-01-27T13:08:59;92196.19;;;4.16;36.03
57248;BME280;55809;46.618;10.764;2023-01-27T13:11:33;92195.84;;;4.29;35.41
57248;BME280;55809;46.618;10.764;2023-01-27T13:14:06;92186.69;;;4.26;36.04
57248;BME280;55809;46.618;10.764;2023-01-27T13:16:33;92182.81;;;4.13;36.27